Time;durP1;ratioP1;P1;durP2;ratioP2;P2;SDS_P1;SDS_P2;PMS_P1;PMS_P2;Temp;Humidity;BMP_temperature;BMP_pressure;BME280_temperature;BME280_humidity;BME280_pressure;Samples;Min_cycle;Max_cycle;Signal;HPM_P1;HPM_P2
2023/10/31 00:01:50;;;;;;;17.13;9.07;;;11.70;99.90;;;;;;4980802;28;91963;-33
2023/10/31 00:04:15;;;;;;;15.65;8.45;;;11.60;99.90;;;;;;4979537;28;89841;-33
2023/10/31 00:06:41;;;;;;;13.98;8.73;;;11.60;99.90;;;;;;4979658;28;89439;-34
2023/10/31 00:09:07;;;;;;;16.63;9.75;;;11.60;99.90;;;;;;4988064;28;88861;-35
2023/10/31 00:11:32;;;;;;;11.32;8.40;;;11.60;99.90;;;;;;4985900;28;90496;-32
2023/10/31 00:13:58;;;;;;;12.32;9.48;;;11.60;99.90;;;;;;4992128;28;90884;-32
2023/10/31 00:16:24;;;;;;;15.65;10.75;;;11.60;99.90;;;;;;4991957;28;89520;-34
2023/10/31 00:18:49;;;;;;;11.82;8.55;;;11.70;99.90;;;;;;4979640;28;87593;-32
2023/10/31 00:21:15;;;;;;;21.67;16.23;;;11.70;99.90;;;;;;4979342;28;90111;-32
2023/10/31 00:23:45;;;;;;;10.57;8.55;;;11.70;99.90;;;;;;4986401;28;89393;-34
2023/10/31 00:26:10;;;;;;;14.00;8.57;;;11.70;99.90;;;;;;4996461;28;89249;-32
2023/10/31 00:28:36;;;;;;;17.30;10.35;;;11.70;99.90;;;;;;4982066;28;90488;-34
2023/10/31 00:31:03;;;;;;;13.63;9.32;;;11.70;99.90;;;;;;4999496;28;90409;-35
2023/10/31 00:33:29;;;;;;;12.98;9.18;;;11.60;99.90;;;;;;4983471;28;89813;-32
2023/10/31 00:35:55;;;;;;;12.90;10.55;;;11.60;99.90;;;;;;4979441;28;89875;-34
2023/10/31 00:38:20;;;;;;;33.17;10.23;;;11.70;99.90;;;;;;4980171;28;88421;-35
2023/10/31 00:40:46;;;;;;;15.25;9.05;;;11.70;99.90;;;;;;4979388;28;91492;-32
2023/10/31 00:43:12;;;;;;;13.27;9.23;;;11.70;99.90;;;;;;4979844;28;90252;-33
2023/10/31 00:45:37;;;;;;;19.05;10.93;;;11.70;99.90;;;;;;4979536;28;90045;-33
2023/10/31 00:48:03;;;;;;;15.32;11.15;;;11.70;99.90;;;;;;4978764;28;90055;-34
2023/10/31 00:50:29;;;;;;;13.68;9.00;;;11.80;99.90;;;;;;4988152;28;90003;-32
2023/10/31 00:52:54;;;;;;;15.70;10.23;;;11.80;99.90;;;;;;4983146;28;90653;-32
2023/10/31 00:55:20;;;;;;;17.17;9.70;;;11.80;99.90;;;;;;4979542;28;90377;-33
2023/10/31 00:57:46;;;;;;;18.15;11.07;;;11.80;99.90;;;;;;4992186;28;88225;-32
2023/10/31 01:00:12;;;;;;;13.13;9.07;;;11.80;99.90;;;;;;4978717;28;89049;-32
2023/10/31 01:02:37;;;;;;;12.23;8.60;;;11.80;99.90;;;;;;4979313;28;90019;-32
2023/10/31 01:05:03;;;;;;;14.40;9.68;;;11.80;99.90;;;;;;4979380;28;90321;-32
2023/10/31 01:07:29;;;;;;;10.98;8.38;;;11.70;99.90;;;;;;4979683;28;90602;-34
2023/10/31 01:09:54;;;;;;;13.75;9.93;;;11.70;99.90;;;;;;4985466;28;90730;-33
2023/10/31 01:12:20;;;;;;;10.95;9.10;;;11.70;99.90;;;;;;4979669;28;89728;-34
2023/10/31 01:14:45;;;;;;;13.20;10.18;;;11.70;99.90;;;;;;4977997;28;90058;-31
2023/10/31 01:17:11;;;;;;;12.80;9.25;;;11.70;99.90;;;;;;4973034;28;89288;-34
2023/10/31 01:19:37;;;;;;;14.00;9.27;;;11.60;99.90;;;;;;4978958;28;90181;-33
2023/10/31 01:22:02;;;;;;;13.23;9.60;;;11.70;99.90;;;;;;4979753;28;89726;-33
2023/10/31 01:24:28;;;;;;;16.02;9.35;;;11.70;99.90;;;;;;4979020;28;89344;-34
2023/10/31 01:26:53;;;;;;;13.77;8.45;;;11.70;99.90;;;;;;4978656;28;88694;-35
2023/10/31 01:29:19;;;;;;;9.63;8.63;;;11.70;99.90;;;;;;4986851;28;88892;-34
2023/10/31 01:31:45;;;;;;;14.27;9.02;;;11.70;99.90;;;;;;4983582;28;89950;-35
2023/10/31 01:34:10;;;;;;;17.98;9.70;;;11.70;99.90;;;;;;4978512;28;89638;-33
2023/10/31 01:36:36;;;;;;;11.88;9.65;;;11.70;99.90;;;;;;4979688;28;89092;-33
2023/10/31 01:39:01;;;;;;;14.60;9.23;;;11.70;99.90;;;;;;4977823;28;90283;-33
2023/10/31 01:41:27;;;;;;;12.85;9.23;;;11.70;99.90;;;;;;4978571;28;89496;-35
2023/10/31 01:43:53;;;;;;;11.25;9.63;;;11.70;99.90;;;;;;4978085;28;89458;-34
2023/10/31 01:46:18;;;;;;;10.05;8.55;;;11.60;99.90;;;;;;4978849;28;89669;-34
2023/10/31 01:48:44;;;;;;;14.32;7.03;;;11.70;99.90;;;;;;4978737;28;89648;-33
2023/10/31 01:51:11;;;;;;;6.68;5.28;;;11.60;99.90;;;;;;4977225;28;89912;-34
2023/10/31 01:53:36;;;;;;;2.55;2.17;;;11.60;99.90;;;;;;4961086;28;90690;-32
2023/10/31 01:56:04;;;;;;;2.88;0.63;;;11.50;99.90;;;;;;4977509;28;89207;-34
2023/10/31 01:58:32;;;;;;;0.85;0.73;;;11.30;99.90;;;;;;4978522;28;90128;-32
2023/10/31 02:00:59;;;;;;;;;;;11.30;99.90;;;;;;4979179;28;89211;-34
2023/10/31 02:03:24;;;;;;;0.30;0.30;;;11.20;99.90;;;;;;4980520;28;89110;-35
2023/10/31 02:05:52;;;;;;;0.43;0.30;;;11.10;99.90;;;;;;4979722;28;88688;-35
2023/10/31 02:08:17;;;;;;;0.40;0.40;;;11.10;99.90;;;;;;4981822;28;90068;-33
2023/10/31 02:10:43;;;;;;;2.28;0.93;;;11.00;99.90;;;;;;4990047;28;89953;-32
2023/10/31 02:13:17;;;;;;;0.30;0.30;;;10.90;99.90;;;;;;4977642;28;88878;-34
2023/10/31 02:15:43;;;;;;;0.70;0.30;;;10.90;99.90;;;;;;4979197;28;88406;-33
2023/10/31 02:18:09;;;;;;;0.57;0.47;;;10.90;99.90;;;;;;4977878;28;89443;-34
2023/10/31 02:20:36;;;;;;;1.55;1.40;;;10.90;99.90;;;;;;4979024;28;89710;-32
2023/10/31 02:23:02;;;;;;;10.15;1.10;;;10.80;99.90;;;;;;4978139;28;90842;-35
2023/10/31 02:25:28;;;;;;;0.93;0.90;;;10.70;99.90;;;;;;4978925;28;89353;-32
2023/10/31 02:27:54;;;;;;;1.10;1.02;;;10.70;99.90;;;;;;4978057;28;88995;-34
2023/10/31 02:30:20;;;;;;;2.42;0.80;;;10.70;99.90;;;;;;4984181;28;91350;-33
2023/10/31 02:32:45;;;;;;;0.63;0.43;;;10.70;99.90;;;;;;4978097;28;89464;-34
2023/10/31 02:35:11;;;;;;;1.20;0.68;;;10.60;99.90;;;;;;4991248;28;89901;-33
2023/10/31 02:37:37;;;;;;;2.47;0.45;;;10.60;99.90;;;;;;4986806;28;90453;-33
2023/10/31 02:40:03;;;;;;;0.90;0.68;;;10.60;99.90;;;;;;4981304;28;91470;-32
2023/10/31 02:42:28;;;;;;;2.13;1.05;;;10.50;99.90;;;;;;4987177;28;89913;-33
2023/10/31 02:44:54;;;;;;;0.70;0.70;;;10.50;99.90;;;;;;4981211;28;89623;-36
2023/10/31 02:47:20;;;;;;;0.70;0.70;;;10.50;99.90;;;;;;4987383;28;89374;-33
2023/10/31 02:49:45;;;;;;;9.35;1.02;;;10.40;99.90;;;;;;4979764;28;89616;-33
2023/10/31 02:52:11;;;;;;;2.05;0.45;;;10.40;99.90;;;;;;4978016;28;89555;-31
2023/10/31 02:54:37;;;;;;;0.65;0.60;;;10.40;99.90;;;;;;4989426;28;89397;-34
2023/10/31 02:57:03;;;;;;;17.67;1.80;;;10.30;99.90;;;;;;4988455;28;90179;-32
2023/10/31 02:59:29;;;;;;;1.17;0.60;;;10.30;99.90;;;;;;4980765;28;89949;-35
2023/10/31 03:01:56;;;;;;;3.63;1.02;;;10.30;99.90;;;;;;4977316;28;89385;-35
2023/10/31 03:04:22;;;;;;;0.55;0.55;;;10.20;99.90;;;;;;4978416;28;88369;-34
2023/10/31 03:06:48;;;;;;;7.15;1.77;;;10.20;99.90;;;;;;4977827;28;90054;-32
2023/10/31 03:09:14;;;;;;;1.02;0.80;;;10.20;99.90;;;;;;4986280;28;89805;-35
2023/10/31 03:11:40;;;;;;;1.23;0.90;;;10.20;99.90;;;;;;4963181;28;89658;-32
2023/10/31 03:14:05;;;;;;;1.05;0.88;;;10.20;99.90;;;;;;4977673;28;88845;-33
2023/10/31 03:16:32;;;;;;;2.50;0.93;;;10.20;99.90;;;;;;4976715;28;89211;-32
2023/10/31 03:18:58;;;;;;;2.42;0.70;;;10.20;99.90;;;;;;4978186;28;89871;-33
2023/10/31 03:21:24;;;;;;;1.27;1.05;;;10.20;99.90;;;;;;4977391;28;89419;-34
2023/10/31 03:23:50;;;;;;;1.67;1.27;;;10.10;99.90;;;;;;4979379;28;88442;-33
2023/10/31 03:26:16;;;;;;;0.80;0.70;;;10.20;99.90;;;;;;4981099;28;89390;-32
2023/10/31 03:28:44;;;;;;;2.25;0.98;;;10.10;99.90;;;;;;4983947;28;89610;-33
2023/10/31 03:31:10;;;;;;;2.22;0.90;;;10.20;99.90;;;;;;4987680;28;88988;-34
2023/10/31 03:33:36;;;;;;;1.50;0.98;;;10.10;99.90;;;;;;4989575;28;88397;-32
2023/10/31 03:36:02;;;;;;;1.55;1.38;;;10.20;99.90;;;;;;4980523;28;90216;-34
2023/10/31 03:38:28;;;;;;;2.08;1.30;;;10.10;99.90;;;;;;4988308;28;89693;-32
2023/10/31 03:40:53;;;;;;;2.05;1.27;;;10.20;99.90;;;;;;4980006;28;90115;-33
2023/10/31 03:43:19;;;;;;;2.55;1.48;;;10.10;99.90;;;;;;4971034;28;89757;-33
2023/10/31 03:45:47;;;;;;;2.00;1.67;;;10.10;99.90;;;;;;4985002;28;88276;-36
2023/10/31 03:48:12;;;;;;;1.20;1.10;;;10.10;99.90;;;;;;4983396;28;90947;-34
2023/10/31 03:50:38;;;;;;;1.48;1.38;;;10.10;99.90;;;;;;4980392;28;89541;-33
2023/10/31 03:53:04;;;;;;;2.50;1.40;;;10.10;99.90;;;;;;4980163;28;90185;-32
2023/10/31 03:55:33;;;;;;;4.95;1.55;;;10.10;99.90;;;;;;4979751;28;90743;-35
2023/10/31 03:57:58;;;;;;;2.53;1.70;;;10.10;99.90;;;;;;4980892;28;90480;-34
2023/10/31 04:00:24;;;;;;;2.55;1.85;;;10.10;99.90;;;;;;4985072;28;90053;-35
2023/10/31 04:02:49;;;;;;;3.13;1.98;;;10.10;99.90;;;;;;4982124;28;88604;-34
2023/10/31 04:05:15;;;;;;;1.52;1.40;;;10.10;99.90;;;;;;4980383;28;90242;-34
2023/10/31 04:07:41;;;;;;;2.13;1.95;;;10.10;99.90;;;;;;4979906;28;89661;-34
2023/10/31 04:10:07;;;;;;;4.10;2.20;;;10.10;99.90;;;;;;4993503;28;89629;-33
2023/10/31 04:12:33;;;;;;;2.17;1.98;;;10.10;99.90;;;;;;4981137;28;90191;-33
2023/10/31 04:14:59;;;;;;;3.60;1.83;;;10.10;99.90;;;;;;4979717;28;90763;-32
2023/10/31 04:17:25;;;;;;;3.92;1.98;;;10.10;99.90;;;;;;4980840;28;90769;-33
2023/10/31 04:19:50;;;;;;;5.10;2.65;;;10.10;99.90;;;;;;4979504;28;89321;-35
2023/10/31 04:22:16;;;;;;;9.88;2.40;;;10.10;99.90;;;;;;4981048;28;89406;-32
2023/10/31 04:24:42;;;;;;;5.38;1.48;;;10.10;99.90;;;;;;4979412;28;90724;-34
2023/10/31 04:27:07;;;;;;;4.72;1.95;;;10.10;99.90;;;;;;4980102;28;90034;-33
2023/10/31 04:29:33;;;;;;;3.05;2.33;;;10.10;99.90;;;;;;4985070;28;89034;-37
2023/10/31 04:31:58;;;;;;;3.95;1.60;;;10.10;99.90;;;;;;4983431;28;90016;-32
2023/10/31 04:34:24;;;;;;;1.98;1.48;;;10.10;99.90;;;;;;4987236;28;90344;-32
2023/10/31 04:36:49;;;;;;;1.30;1.20;;;10.10;99.90;;;;;;4961874;28;89840;-31
2023/10/31 04:39:15;;;;;;;1.95;1.27;;;10.10;99.90;;;;;;4980054;28;89863;-35
2023/10/31 04:41:41;;;;;;;2.55;1.20;;;10.10;99.90;;;;;;4984989;28;88354;-35
2023/10/31 04:44:06;;;;;;;5.35;1.95;;;10.10;99.90;;;;;;4980206;28;91414;-34
2023/10/31 04:46:32;;;;;;;1.42;1.33;;;10.10;99.90;;;;;;4978862;28;89823;-33
2023/10/31 04:48:58;;;;;;;1.38;1.23;;;10.10;99.90;;;;;;4979786;28;89647;-33
2023/10/31 04:51:23;;;;;;;2.15;1.67;;;10.10;99.90;;;;;;4967863;28;89834;-32
2023/10/31 04:53:49;;;;;;;1.27;1.00;;;10.10;99.90;;;;;;4984127;28;90222;-34
2023/10/31 04:56:16;;;;;;;1.23;0.90;;;10.10;99.90;;;;;;4961215;28;89503;-34
2023/10/31 04:58:42;;;;;;;1.10;1.00;;;10.10;99.90;;;;;;4979162;28;91169;-33
2023/10/31 05:01:17;;;;;;;4.63;1.02;;;10.10;99.90;;;;;;4980077;28;88806;-33
2023/10/31 05:03:43;;;;;;;1.15;1.02;;;10.10;99.90;;;;;;4972530;28;89631;-36
2023/10/31 05:06:08;;;;;;;2.33;1.38;;;10.10;99.90;;;;;;4979188;28;89864;-34
2023/10/31 05:08:34;;;;;;;1.77;1.33;;;10.10;99.90;;;;;;4989426;28;90391;-33
2023/10/31 05:11:00;;;;;;;2.80;1.02;;;10.10;99.90;;;;;;4988643;28;89109;-33
2023/10/31 05:13:25;;;;;;;2.80;1.00;;;10.10;99.90;;;;;;4985616;28;89986;-33
2023/10/31 05:15:51;;;;;;;1.25;0.90;;;10.20;99.90;;;;;;4979661;28;90594;-31
2023/10/31 05:18:17;;;;;;;2.38;0.98;;;10.10;99.90;;;;;;4978256;28;90165;-32
2023/10/31 05:20:43;;;;;;;1.30;0.85;;;10.10;99.90;;;;;;4979560;28;88296;-34
2023/10/31 05:23:09;;;;;;;1.00;0.80;;;10.10;99.90;;;;;;4981963;28;90253;-35
2023/10/31 05:25:35;;;;;;;1.67;0.77;;;10.10;99.90;;;;;;4988323;28;89521;-33
2023/10/31 05:28:01;;;;;;;0.57;0.57;;;10.10;99.90;;;;;;4979421;28;89255;-33
2023/10/31 05:30:27;;;;;;;1.23;1.05;;;10.10;99.90;;;;;;4978985;28;89684;-32
2023/10/31 05:32:52;;;;;;;1.00;0.88;;;10.10;99.90;;;;;;4978778;28;90316;-32
2023/10/31 05:35:19;;;;;;;2.50;1.00;;;10.10;99.90;;;;;;4989006;28;90418;-34
2023/10/31 05:37:45;;;;;;;2.25;1.23;;;10.10;99.90;;;;;;4961325;28;90432;-34
2023/10/31 05:40:12;;;;;;;1.30;0.90;;;10.10;99.90;;;;;;4978565;28;87702;-34
2023/10/31 05:42:38;;;;;;;1.02;0.90;;;10.10;99.90;;;;;;4960566;28;91636;-34
2023/10/31 05:45:04;;;;;;;1.13;0.70;;;10.00;99.90;;;;;;4978953;28;89505;-33
2023/10/31 05:47:30;;;;;;;1.23;1.05;;;10.00;99.90;;;;;;4977453;28;90116;-34
2023/10/31 05:49:56;;;;;;;2.88;1.33;;;10.00;99.90;;;;;;4977953;28;88578;-34
2023/10/31 05:52:21;;;;;;;1.23;1.13;;;10.00;99.90;;;;;;4978712;28;89274;-34
2023/10/31 05:54:47;;;;;;;0.80;0.80;;;10.00;99.90;;;;;;5007937;22;89991;-33
2023/10/31 05:57:12;;;;;;;1.00;1.00;;;10.00;99.90;;;;;;4941855;28;89840;-36
2023/10/31 05:59:39;;;;;;;1.20;0.70;;;10.00;99.90;;;;;;4960022;28;88841;-33
2023/10/31 06:02:05;;;;;;;2.00;0.60;;;10.00;99.90;;;;;;4957779;28;90160;-34
2023/10/31 06:04:30;;;;;;;1.13;1.02;;;10.00;99.90;;;;;;4959388;28;90205;-32
2023/10/31 06:06:56;;;;;;;5.25;1.50;;;10.00;99.90;;;;;;4958148;28;90195;-33
2023/10/31 06:09:21;;;;;;;1.20;1.10;;;10.00;99.90;;;;;;4959244;28;88512;-35
2023/10/31 06:11:47;;;;;;;1.90;1.25;;;10.00;99.90;;;;;;4957339;28;90316;-35
2023/10/31 06:14:13;;;;;;;1.30;1.15;;;10.00;99.90;;;;;;4959131;28;88076;-35
2023/10/31 06:16:43;;;;;;;1.33;0.93;;;10.00;99.90;;;;;;4957123;28;89837;-32
2023/10/31 06:19:09;;;;;;;2.55;1.10;;;10.00;99.90;;;;;;4959767;28;90275;-34
2023/10/31 06:21:34;;;;;;;1.85;1.13;;;10.00;99.90;;;;;;4957753;28;89578;-33
2023/10/31 06:24:00;;;;;;;3.65;1.10;;;10.00;99.90;;;;;;4958569;28;89920;-33
2023/10/31 06:26:26;;;;;;;1.67;1.13;;;10.00;99.90;;;;;;4957119;28;89645;-34
2023/10/31 06:28:51;;;;;;;1.27;1.17;;;10.00;99.90;;;;;;4957820;28;88850;-34
2023/10/31 06:31:17;;;;;;;3.22;1.05;;;10.00;99.90;;;;;;4959309;28;90123;-32
2023/10/31 06:33:42;;;;;;;1.85;1.13;;;9.90;99.90;;;;;;4957680;28;90156;-33
2023/10/31 06:36:08;;;;;;;2.95;1.40;;;9.90;99.90;;;;;;4958565;28;90107;-33
2023/10/31 06:38:34;;;;;;;0.85;0.85;;;10.00;99.90;;;;;;4957329;28;89857;-34
2023/10/31 06:41:00;;;;;;;3.97;0.98;;;10.00;99.90;;;;;;4941163;28;89654;-31
2023/10/31 06:43:25;;;;;;;2.13;1.90;;;9.90;99.90;;;;;;4924658;28;89331;-35
2023/10/31 06:45:51;;;;;;;1.10;1.00;;;9.90;99.90;;;;;;4958570;28;89510;-35
2023/10/31 06:48:17;;;;;;;2.75;1.60;;;10.00;99.90;;;;;;4957891;28;88918;-33
2023/10/31 06:50:42;;;;;;;1.30;1.20;;;9.90;99.90;;;;;;4957690;28;91107;-33
2023/10/31 06:53:08;;;;;;;2.38;1.50;;;10.00;99.90;;;;;;4957824;28;89546;-34
2023/10/31 06:55:34;;;;;;;2.20;1.90;;;9.90;99.90;;;;;;4939351;28;89219;-35
2023/10/31 06:57:59;;;;;;;1.98;1.67;;;10.00;99.90;;;;;;4959480;28;88558;-42
2023/10/31 07:00:27;;;;;;;1.92;1.83;;;10.00;99.90;;;;;;4961193;28;90474;-32
2023/10/31 07:02:52;;;;;;;10.52;3.92;;;10.00;99.90;;;;;;4961273;28;89726;-34
2023/10/31 07:05:20;;;;;;;2.20;2.00;;;10.00;99.90;;;;;;4960628;28;88482;-31
2023/10/31 07:07:46;;;;;;;3.88;1.73;;;10.00;99.90;;;;;;4961867;28;88446;-33
2023/10/31 07:10:11;;;;;;;6.45;2.30;;;10.00;99.90;;;;;;4960756;28;89130;-35
2023/10/31 07:12:37;;;;;;;2.60;2.40;;;10.00;99.90;;;;;;4960767;28;89619;-34
2023/10/31 07:15:04;;;;;;;3.00;1.55;;;10.00;99.90;;;;;;4957563;28;89648;-33
2023/10/31 07:17:30;;;;;;;2.10;1.83;;;10.00;99.90;;;;;;4961212;28;88341;-34
2023/10/31 07:19:55;;;;;;;2.70;2.50;;;10.00;99.90;;;;;;4961275;28;90497;-32
2023/10/31 07:22:24;;;;;;;5.57;2.35;;;10.00;99.90;;;;;;4960537;28;89504;-34
2023/10/31 07:24:50;;;;;;;2.55;2.20;;;10.10;99.90;;;;;;4942648;28;89535;-33
2023/10/31 07:27:15;;;;;;;1.83;1.63;;;10.00;99.90;;;;;;4961456;28;89093;-33
2023/10/31 07:29:41;;;;;;;2.45;2.25;;;10.10;99.90;;;;;;4961337;28;89881;-34
2023/10/31 07:32:08;;;;;;;3.10;2.25;;;10.10;99.90;;;;;;4960236;28;88841;-35
2023/10/31 07:34:33;;;;;;;2.53;2.10;;;10.10;99.90;;;;;;4961148;28;88528;-34
2023/10/31 07:36:59;;;;;;;3.42;2.08;;;10.10;99.90;;;;;;4960232;28;89631;-35
2023/10/31 07:39:25;;;;;;;3.33;2.47;;;10.10;99.90;;;;;;4960714;28;89670;-33
2023/10/31 07:41:51;;;;;;;5.30;2.88;;;10.10;99.90;;;;;;4960198;28;90804;-34
2023/10/31 07:44:17;;;;;;;2.97;2.47;;;10.10;99.90;;;;;;4961305;28;89737;-33
2023/10/31 07:46:42;;;;;;;3.92;2.45;;;10.20;99.90;;;;;;4960457;28;88529;-34
2023/10/31 07:49:08;;;;;;;3.10;2.72;;;10.20;99.90;;;;;;4960750;28;89579;-34
2023/10/31 07:51:33;;;;;;;3.50;2.65;;;10.20;99.90;;;;;;4960224;28;89411;-35
2023/10/31 07:53:59;;;;;;;3.22;2.47;;;10.20;99.90;;;;;;4960247;28;89440;-35
2023/10/31 07:56:25;;;;;;;3.42;2.58;;;10.30;99.90;;;;;;4959945;28;89222;-34
2023/10/31 07:58:51;;;;;;;6.13;4.85;;;10.30;99.90;;;;;;4960227;28;90231;-34
2023/10/31 08:01:20;;;;;;;3.47;3.17;;;10.30;99.90;;;;;;4958898;28;88501;-34
2023/10/31 08:03:48;;;;;;;3.50;3.13;;;10.30;99.90;;;;;;4959897;28;90321;-33
2023/10/31 08:06:14;;;;;;;3.13;2.83;;;10.40;99.90;;;;;;4960637;28;87800;-33
2023/10/31 08:08:40;;;;;;;4.15;3.00;;;10.40;99.90;;;;;;4959325;28;91135;-33
2023/10/31 08:11:09;;;;;;;5.97;3.63;;;10.40;99.90;;;;;;4942054;28;90021;-34
2023/10/31 08:13:37;;;;;;;9.40;3.35;;;10.50;99.90;;;;;;4957334;28;89570;-32
2023/10/31 08:16:04;;;;;;;5.93;2.90;;;10.50;99.90;;;;;;4957660;28;89801;-33
2023/10/31 08:18:29;;;;;;;5.82;3.65;;;10.60;99.90;;;;;;4957175;28;92198;-34
2023/10/31 08:20:55;;;;;;;3.17;2.88;;;10.60;99.90;;;;;;4940029;28;89642;-34
2023/10/31 08:23:20;;;;;;;3.08;2.85;;;10.60;99.90;;;;;;4957400;28;89730;-32
2023/10/31 08:25:46;;;;;;;3.15;2.63;;;10.70;99.90;;;;;;4956600;28;89134;-33
2023/10/31 08:28:12;;;;;;;11.60;3.03;;;10.80;99.90;;;;;;4957660;28;90750;-35
2023/10/31 08:30:38;;;;;;;12.23;2.92;;;10.80;99.90;;;;;;4956984;28;90140;-34
2023/10/31 08:33:04;;;;;;;10.90;4.35;;;10.90;99.90;;;;;;4956659;28;90235;-35
2023/10/31 08:35:30;;;;;;;2.85;2.63;;;10.90;99.90;;;;;;4957879;28;89130;-32
2023/10/31 08:37:56;;;;;;;4.63;2.17;;;11.00;99.90;;;;;;4956326;28;89412;-32
2023/10/31 08:40:21;;;;;;;1.95;1.75;;;11.10;99.90;;;;;;4956574;28;89605;-33
2023/10/31 08:42:47;;;;;;;7.13;2.25;;;11.10;99.90;;;;;;4958056;28;89176;-33
2023/10/31 08:45:13;;;;;;;1.70;1.42;;;11.10;99.90;;;;;;4957486;28;89096;-34
2023/10/31 08:47:38;;;;;;;1.42;1.33;;;11.20;99.90;;;;;;4956862;28;92078;-34
2023/10/31 08:50:04;;;;;;;18.85;1.80;;;11.20;99.90;;;;;;4957044;28;89810;-35
2023/10/31 08:52:30;;;;;;;1.63;1.33;;;11.20;99.90;;;;;;4957456;28;89447;-32
2023/10/31 08:54:56;;;;;;;1.50;1.40;;;11.20;99.90;;;;;;4955967;28;89385;-35
2023/10/31 08:57:22;;;;;;;1.30;1.20;;;11.30;99.90;;;;;;4957446;28;90366;-35
2023/10/31 08:59:48;;;;;;;3.15;1.40;;;11.30;99.90;;;;;;4957364;28;90195;-33
2023/10/31 09:02:13;;;;;;;1.27;1.00;;;11.30;99.90;;;;;;4955778;28;89405;-34
2023/10/31 09:04:39;;;;;;;1.30;1.20;;;11.30;99.90;;;;;;4956968;28;88740;-34
2023/10/31 09:07:04;;;;;;;1.50;0.82;;;11.40;99.90;;;;;;4956290;28;89726;-35
2023/10/31 09:09:30;;;;;;;3.42;1.10;;;11.40;99.90;;;;;;4956924;28;90270;-33
2023/10/31 09:11:55;;;;;;;1.40;1.30;;;11.40;99.90;;;;;;4956382;28;89945;-33
2023/10/31 09:14:21;;;;;;;2.83;1.10;;;11.40;99.90;;;;;;4957663;28;88795;-35
2023/10/31 09:16:47;;;;;;;1.20;0.85;;;11.40;99.90;;;;;;4953695;28;91622;-33
2023/10/31 09:19:12;;;;;;;1.40;1.27;;;11.50;99.90;;;;;;4957080;28;89872;-33
2023/10/31 09:21:38;;;;;;;2.38;1.23;;;11.40;99.90;;;;;;4957506;28;89443;-35
2023/10/31 09:24:04;;;;;;;1.95;0.70;;;11.50;99.90;;;;;;4955708;28;87808;-32
2023/10/31 09:26:30;;;;;;;1.35;0.80;;;11.50;99.90;;;;;;4954068;28;89793;-35
2023/10/31 09:28:55;;;;;;;1.50;0.80;;;11.60;99.90;;;;;;4939282;28;90024;-34
2023/10/31 09:31:21;;;;;;;1.92;1.02;;;11.60;99.90;;;;;;4936817;28;90638;-35
2023/10/31 09:33:47;;;;;;;2.45;1.10;;;11.60;99.90;;;;;;4957102;28;89432;-35
2023/10/31 09:36:14;;;;;;;1.60;0.80;;;11.70;99.90;;;;;;4955970;28;90476;-33
2023/10/31 09:38:40;;;;;;;4.15;1.20;;;11.70;99.90;;;;;;4955804;28;89767;-35
2023/10/31 09:41:06;;;;;;;1.92;0.88;;;11.70;99.90;;;;;;4954953;28;89887;-35
2023/10/31 09:43:32;;;;;;;2.45;0.80;;;11.70;99.90;;;;;;4956561;28;89732;-33
2023/10/31 09:46:00;;;;;;;1.52;0.77;;;11.70;99.90;;;;;;4955331;28;90153;-35
2023/10/31 09:48:26;;;;;;;3.67;1.70;;;11.70;99.90;;;;;;4956671;28;89248;-32
2023/10/31 09:50:53;;;;;;;2.65;0.88;;;11.70;99.90;;;;;;4956080;28;89960;-32
2023/10/31 09:53:20;;;;;;;2.13;1.02;;;11.70;99.90;;;;;;4955688;28;88363;-34
2023/10/31 09:55:46;;;;;;;2.88;1.23;;;11.70;99.90;;;;;;4956142;28;90099;-35
2023/10/31 09:58:12;;;;;;;1.10;0.60;;;11.70;99.90;;;;;;4955912;28;90193;-35
2023/10/31 10:00:40;;;;;;;0.50;0.50;;;11.70;99.90;;;;;;4955857;28;89721;-35
2023/10/31 10:03:10;;;;;;;1.30;0.50;;;11.70;99.90;;;;;;4955987;28;88808;-34
2023/10/31 10:05:36;;;;;;;2.05;0.77;;;11.70;99.90;;;;;;4949950;28;90440;-33
2023/10/31 10:08:03;;;;;;;1.73;0.60;;;11.70;99.90;;;;;;4956381;28;89892;-34
2023/10/31 10:10:31;;;;;;;2.05;1.42;;;11.70;99.90;;;;;;4955176;28;89121;-34
2023/10/31 10:12:58;;;;;;;1.97;0.77;;;11.60;99.90;;;;;;4956683;28;89047;-32
2023/10/31 10:15:24;;;;;;;0.82;0.35;;;11.70;99.90;;;;;;4955579;28;88549;-35
2023/10/31 10:17:52;;;;;;;5.32;1.08;;;11.70;99.90;;;;;;4954803;28;89761;-34
2023/10/31 10:20:18;;;;;;;;;;;11.70;99.90;;;;;;4956191;28;90051;-32
2023/10/31 10:22:44;;;;;;;0.47;0.47;;;11.60;99.90;;;;;;4957909;28;89134;-35
2023/10/31 10:25:14;;;;;;;0.40;0.30;;;11.70;99.90;;;;;;4943024;28;91445;-34
2023/10/31 10:27:41;;;;;;;0.30;0.30;;;11.70;99.90;;;;;;4955363;28;88417;-32
2023/10/31 10:30:08;;;;;;;0.40;0.40;;;11.70;99.90;;;;;;4955450;28;88881;-33
2023/10/31 10:32:34;;;;;;;1.95;0.30;;;11.70;99.90;;;;;;4939142;28;88143;-35
2023/10/31 10:35:00;;;;;;;0.50;0.50;;;11.70;99.90;;;;;;4959240;28;90167;-32
2023/10/31 10:37:27;;;;;;;3.63;0.98;;;11.70;99.90;;;;;;4959015;28;89493;-34
2023/10/31 10:39:56;;;;;;;0.73;0.50;;;11.60;99.90;;;;;;4958548;28;89371;-34
2023/10/31 10:42:33;;;;;;;1.10;0.40;;;11.60;99.90;;;;;;4942919;28;90280;-33
2023/10/31 10:45:03;;;;;;;1.10;0.30;;;11.70;99.90;;;;;;4959965;28;90344;-33
2023/10/31 10:47:31;;;;;;;2.70;1.35;;;11.70;99.90;;;;;;4958911;28;90606;-33
2023/10/31 10:50:00;;;;;;;5.10;1.23;;;11.70;99.90;;;;;;4958813;28;88926;-34
2023/10/31 10:52:35;;;;;;;1.50;0.70;;;11.60;99.90;;;;;;4958918;28;88852;-34
2023/10/31 10:55:08;;;;;;;0.50;0.50;;;11.60;99.90;;;;;;4947605;28;90757;-34
2023/10/31 10:57:56;;;;;;;1.85;0.60;;;11.60;99.90;;;;;;4957393;28;90365;-34
2023/10/31 11:00:24;;;;;;;2.25;0.85;;;11.60;99.90;;;;;;4949019;28;90181;-33
2023/10/31 11:02:52;;;;;;;1.85;0.85;;;11.60;99.90;;;;;;4957276;28;88348;-34
2023/10/31 11:05:19;;;;;;;1.00;0.52;;;11.70;99.90;;;;;;4958431;28;89080;-34
2023/10/31 11:07:45;;;;;;;1.02;0.57;;;11.60;99.90;;;;;;4957850;28;90525;-32
2023/10/31 11:10:11;;;;;;;0.40;0.40;;;11.60;99.90;;;;;;4957853;28;89503;-34
2023/10/31 11:12:38;;;;;;;2.80;0.85;;;11.60;99.90;;;;;;4960070;28;88628;-33
2023/10/31 11:15:06;;;;;;;1.67;0.47;;;11.60;99.90;;;;;;4957670;28;90113;-33
2023/10/31 11:17:37;;;;;;;0.95;0.90;;;11.60;99.90;;;;;;4958550;28;90379;-36
2023/10/31 11:20:04;;;;;;;2.92;0.40;;;11.70;99.90;;;;;;4957856;28;90993;-34
2023/10/31 11:22:45;;;;;;;0.55;0.55;;;11.70;99.90;;;;;;4958306;28;88089;-34
2023/10/31 11:25:19;;;;;;;2.40;0.52;;;11.70;99.90;;;;;;4958445;28;90371;-34
2023/10/31 11:27:44;;;;;;;0.82;0.60;;;11.80;99.90;;;;;;4957790;28;89598;-35
2023/10/31 11:30:27;;;;;;;3.20;0.93;;;11.80;99.90;;;;;;4957906;28;90294;-34
2023/10/31 11:33:01;;;;;;;0.60;0.60;;;11.80;99.90;;;;;;4958759;28;90484;-32
2023/10/31 11:35:30;;;;;;;1.63;0.98;;;11.80;99.90;;;;;;4957804;28;91450;-35
2023/10/31 11:38:09;;;;;;;1.05;0.73;;;11.80;99.90;;;;;;4957697;28;89653;-35
2023/10/31 11:41:08;;;;;;;2.42;0.68;;;11.90;99.90;;;;;;4945950;28;90198;-32
2023/10/31 11:43:40;;;;;;;3.22;0.80;;;11.90;99.90;;;;;;4924443;28;89219;-35
2023/10/31 11:46:06;;;;;;;2.80;0.73;;;11.90;99.90;;;;;;4957780;28;90502;-34
2023/10/31 11:48:46;;;;;;;0.43;0.30;;;11.90;99.90;;;;;;4958877;28;88358;-33
2023/10/31 11:51:13;;;;;;;2.67;0.60;;;11.90;99.90;;;;;;4958066;28;89365;-33
2023/10/31 11:53:39;;;;;;;0.50;0.50;;;11.90;99.90;;;;;;4954572;28;88548;-34
2023/10/31 11:56:06;;;;;;;0.68;0.55;;;11.80;99.90;;;;;;4957906;28;88712;-35
2023/10/31 11:58:31;;;;;;;5.85;0.73;;;11.80;99.90;;;;;;4959269;28;91668;-32
2023/10/31 12:01:03;;;;;;;0.50;0.50;;;11.80;99.90;;;;;;4956186;28;89603;-35
2023/10/31 12:03:40;;;;;;;1.05;0.63;;;11.80;99.90;;;;;;4950815;28;89028;-33
2023/10/31 12:06:06;;;;;;;1.10;0.63;;;11.80;99.90;;;;;;4956291;28;89514;-33
2023/10/31 12:08:40;;;;;;;9.95;0.70;;;11.90;99.90;;;;;;4956031;28;89431;-35
2023/10/31 12:11:09;;;;;;;4.70;0.77;;;11.90;99.90;;;;;;4956048;28;89247;-33
2023/10/31 12:13:37;;;;;;;2.95;0.80;;;11.90;99.90;;;;;;4957756;28;89144;-33
2023/10/31 12:16:04;;;;;;;1.63;0.70;;;11.90;99.90;;;;;;4959521;28;91749;-33
2023/10/31 12:18:29;;;;;;;0.57;0.40;;;12.00;99.90;;;;;;4959546;28;91033;-35
2023/10/31 12:20:55;;;;;;;1.00;0.57;;;11.90;99.90;;;;;;4960678;28;89444;-32
2023/10/31 12:23:21;;;;;;;0.40;0.40;;;11.90;99.90;;;;;;4960832;28;90212;-34
2023/10/31 12:25:53;;;;;;;2.58;0.95;;;11.80;99.90;;;;;;4959487;28;90147;-33
2023/10/31 12:28:23;;;;;;;0.50;0.50;;;11.80;99.90;;;;;;4954981;28;89003;-33
2023/10/31 12:30:54;;;;;;;1.75;0.68;;;11.80;99.90;;;;;;4960402;28;89910;-35
2023/10/31 12:33:21;;;;;;;1.55;0.68;;;11.70;99.90;;;;;;4960135;28;90792;-33
2023/10/31 12:35:48;;;;;;;5.93;1.03;;;11.70;99.90;;;;;;4959923;28;90441;-34
2023/10/31 12:38:15;;;;;;;3.70;0.60;;;11.70;99.90;;;;;;4958876;28;89877;-32
2023/10/31 12:40:43;;;;;;;0.55;0.55;;;11.60;99.90;;;;;;4941429;28;89422;-34
2023/10/31 12:43:09;;;;;;;1.48;0.95;;;11.70;99.90;;;;;;4959292;28;88829;-33